Errenteria, Spain
Current Conditions -  °F | °C
As of 3:00 PM on Monday 26 Jan 2015 (Local Time) from LESO Reporting Station
Overcast Overcast  
Wind Chill: 48°   Ceiling: 4500
Heat Index: 48°   Visibility: 6mi
Dew Point: 36°   Wind: 0mph
Humidity: 62%   Direction: NA
Pressure: 30.5"   Gusts: NA
Location:  43.31°N, 1.9°W
Report Text: LESO 261400Z 00000KT 9999 OVC045 09/02 Q1033
Loading
Personal Weather Stations






























Interactive Weather Map New forecast layout! Learn more

10-Day Weather Forecast

Advertisements
Track Severe Weather on mobile